Time;durP1;ratioP1;P1;durP2;ratioP2;P2;SDS_P1;SDS_P2;PMS_P1;PMS_P2;Temp;Humidity;BMP_temperature;BMP_pressure;BME280_temperature;BME280_humidity;BME280_pressure;Samples;Min_cycle;Max_cycle;Signal;HPM_P1;HPM_P2
2022/04/23 00:00:43;;;;;;;1.43;1.03;;;11.70;92.40;;;;;;5040224;28;20526;-80
2022/04/23 00:03:10;;;;;;;1.43;1.10;;;11.70;92.40;;;;;;5053435;28;20478;-79
2022/04/23 00:05:37;;;;;;;1.50;1.10;;;11.70;92.30;;;;;;5061523;28;20914;-78
2022/04/23 00:08:06;;;;;;;1.60;1.33;;;11.70;91.70;;;;;;5044146;28;20465;-80
2022/04/23 00:10:33;;;;;;;1.80;1.50;;;11.70;91.90;;;;;;5047322;28;20477;-78
2022/04/23 00:13:00;;;;;;;1.50;1.10;;;11.60;92.00;;;;;;5048273;28;20483;-80
2022/04/23 00:15:27;;;;;;;1.50;1.10;;;11.60;92.10;;;;;;5042336;28;20494;-79
2022/04/23 00:17:55;;;;;;;1.47;1.10;;;11.60;92.20;;;;;;5051633;28;20459;-79
2022/04/23 00:20:24;;;;;;;1.47;1.10;;;11.50;92.10;;;;;;5055167;28;20477;-79
2022/04/23 00:22:51;;;;;;;1.50;1.10;;;11.40;92.50;;;;;;5046438;28;20491;-79
2022/04/23 00:25:19;;;;;;;1.50;1.10;;;11.40;92.80;;;;;;5040848;28;20494;-79
2022/04/23 00:27:46;;;;;;;1.50;1.13;;;11.30;92.90;;;;;;5051651;28;20469;-79
2022/04/23 00:30:13;;;;;;;1.47;1.00;;;11.30;93.40;;;;;;5060178;28;20523;-79
2022/04/23 00:32:41;;;;;;;1.50;1.10;;;11.20;94.20;;;;;;5058800;28;20473;-79
2022/04/23 00:35:13;;;;;;;1.50;1.10;;;11.20;93.50;;;;;;5055475;28;20471;-80
2022/04/23 00:37:41;;;;;;;1.50;1.10;;;11.10;94.10;;;;;;5055391;28;20450;-78
2022/04/23 00:40:16;;;;;;;1.50;1.10;;;11.00;94.00;;;;;;5058295;28;20882;-80
2022/04/23 00:42:51;;;;;;;1.50;1.10;;;11.00;94.30;;;;;;5046517;28;20551;-79
2022/04/23 00:45:18;;;;;;;1.50;1.10;;;11.00;93.70;;;;;;5041543;28;20550;-78
2022/04/23 00:47:46;;;;;;;1.50;1.10;;;10.90;94.70;;;;;;5056572;28;20463;-79
2022/04/23 00:50:14;;;;;;;1.50;1.10;;;10.90;95.00;;;;;;5059002;28;20526;-78
2022/04/23 00:52:40;;;;;;;1.50;1.10;;;10.90;95.10;;;;;;5058983;28;20489;-79
2022/04/23 00:55:09;;;;;;;1.43;1.00;;;10.80;94.40;;;;;;5051350;28;20836;-77
2022/04/23 00:57:37;;;;;;;1.50;1.10;;;10.70;94.80;;;;;;5058289;28;20459;-79
2022/04/23 01:00:08;;;;;;;1.50;1.10;;;10.70;95.10;;;;;;5059860;28;20843;-80
2022/04/23 01:02:35;;;;;;;1.50;1.10;;;10.70;94.60;;;;;;5058482;28;20502;-80
2022/04/23 01:05:03;;;;;;;1.50;1.10;;;10.70;95.00;;;;;;5059401;28;20459;-80
2022/04/23 01:07:31;;;;;;;1.67;1.57;;;10.60;95.80;;;;;;5055197;28;20948;-79
2022/04/23 01:09:58;;;;;;;1.43;1.10;;;10.60;95.80;;;;;;5044020;28;20463;-79
2022/04/23 01:12:24;;;;;;;1.50;1.20;;;10.50;95.90;;;;;;5051671;28;20470;-80
2022/04/23 01:14:58;;;;;;;1.43;1.10;;;10.50;96.50;;;;;;5057794;28;20462;-80
2022/04/23 01:17:26;;;;;;;1.50;1.10;;;10.40;95.80;;;;;;5050186;28;20856;-78
2022/04/23 01:19:53;;;;;;;1.47;1.10;;;10.30;95.90;;;;;;5057788;28;20465;-79
2022/04/23 01:22:23;;;;;;;1.50;1.07;;;10.30;96.40;;;;;;5056115;28;20486;-79
2022/04/23 01:24:54;;;;;;;1.43;1.10;;;10.30;96.20;;;;;;5058276;28;20462;-78
2022/04/23 01:27:24;;;;;;;1.50;1.10;;;10.20;96.00;;;;;;5058177;28;20457;-79
2022/04/23 01:29:50;;;;;;;1.57;1.40;;;10.20;96.40;;;;;;5044506;28;20459;-80
2022/04/23 01:32:17;;;;;;;1.50;1.10;;;10.20;96.60;;;;;;5049221;28;20492;-81
2022/04/23 01:34:44;;;;;;;1.47;1.13;;;10.20;96.60;;;;;;5058404;28;20466;-78
2022/04/23 01:37:12;;;;;;;1.50;1.10;;;10.20;96.80;;;;;;5055220;28;20842;-77
2022/04/23 01:39:40;;;;;;;1.50;1.10;;;10.10;97.60;;;;;;5058037;28;20489;-78
2022/04/23 01:42:07;;;;;;;1.47;1.10;;;10.10;96.90;;;;;;5055732;28;20495;-80
2022/04/23 01:44:34;;;;;;;1.50;1.10;;;10.10;96.90;;;;;;5057162;28;20480;-78
2022/04/23 01:47:01;;;;;;;1.50;1.10;;;10.00;97.70;;;;;;5056942;28;20911;-78
2022/04/23 01:49:28;;;;;;;1.47;1.10;;;10.00;98.20;;;;;;5041218;28;20984;-79
2022/04/23 01:51:55;;;;;;;1.50;1.10;;;10.00;98.10;;;;;;5045968;28;20761;-78
2022/04/23 01:54:22;;;;;;;1.50;1.10;;;10.00;98.20;;;;;;5058059;28;20468;-78
2022/04/23 01:56:50;;;;;;;1.43;1.10;;;9.90;98.20;;;;;;5047791;28;20479;-79
2022/04/23 01:59:17;;;;;;;1.50;1.10;;;9.90;98.00;;;;;;5052868;28;20534;-78
2022/04/23 02:01:44;;;;;;;1.50;1.10;;;9.90;98.20;;;;;;5055472;28;20454;-79
2022/04/23 02:04:11;;;;;;;1.47;1.10;;;9.90;98.20;;;;;;5056779;28;20832;-78
2022/04/23 02:06:38;;;;;;;1.47;1.10;;;9.80;98.20;;;;;;5056809;28;20467;-80
2022/04/23 02:09:05;;;;;;;1.50;1.20;;;9.80;98.20;;;;;;5057066;28;20466;-78
2022/04/23 02:11:32;;;;;;;1.50;1.20;;;9.80;98.20;;;;;;5056356;28;20897;-79
2022/04/23 02:14:02;;;;;;;1.43;1.10;;;9.70;98.20;;;;;;5051060;28;20487;-78
2022/04/23 02:16:29;;;;;;;1.50;1.20;;;9.70;98.20;;;;;;5043700;28;20462;-78
2022/04/23 02:18:57;;;;;;;1.50;1.10;;;9.70;98.20;;;;;;5056957;28;20462;-77
2022/04/23 02:21:24;;;;;;;1.50;1.30;;;9.60;98.20;;;;;;5055478;28;21083;-78
2022/04/23 02:23:51;;;;;;;1.50;1.20;;;9.60;98.20;;;;;;5056309;28;20485;-77
2022/04/23 02:26:18;;;;;;;1.50;1.20;;;9.60;98.20;;;;;;5053026;28;20462;-78
2022/04/23 02:28:44;;;;;;;1.50;1.10;;;9.60;98.20;;;;;;5052454;28;20450;-78
2022/04/23 02:31:12;;;;;;;1.47;1.10;;;9.60;98.20;;;;;;5037579;28;20466;-79
2022/04/23 02:33:40;;;;;;;1.50;1.10;;;9.70;98.20;;;;;;5057289;28;20489;-79
2022/04/23 02:36:07;;;;;;;1.50;1.10;;;9.60;98.20;;;;;;5046814;28;20597;-78
2022/04/23 02:38:39;;;;;;;1.47;1.20;;;9.60;98.20;;;;;;5055106;28;20458;-79
2022/04/23 02:41:06;;;;;;;1.50;1.20;;;9.60;98.20;;;;;;5054040;28;20525;-77
2022/04/23 02:43:35;;;;;;;1.50;1.30;;;9.60;98.20;;;;;;5053055;28;20990;-78
2022/04/23 02:46:02;;;;;;;1.43;1.10;;;9.60;98.20;;;;;;5056558;28;20802;-79
2022/04/23 02:48:31;;;;;;;1.50;1.17;;;9.60;98.20;;;;;;5042229;28;20844;-78
2022/04/23 02:50:58;;;;;;;1.50;1.20;;;9.50;98.20;;;;;;5035128;28;21132;-78
2022/04/23 02:53:26;;;;;;;1.47;1.10;;;9.50;98.20;;;;;;5055838;28;20494;-79
2022/04/23 02:55:56;;;;;;;1.47;1.10;;;9.50;98.20;;;;;;5054721;28;20505;-78
2022/04/23 02:58:25;;;;;;;1.50;1.10;;;9.50;98.20;;;;;;5034639;28;20513;-79
2022/04/23 03:00:53;;;;;;;1.50;1.17;;;9.40;98.20;;;;;;5026607;28;20781;-78
2022/04/23 03:03:21;;;;;;;1.47;1.13;;;9.50;98.20;;;;;;5048367;28;20498;-78
2022/04/23 03:05:51;;;;;;;1.50;1.20;;;9.40;98.20;;;;;;5035208;28;20481;-78
2022/04/23 03:08:19;;;;;;;1.50;1.17;;;9.40;98.20;;;;;;5054727;28;20606;-79
2022/04/23 03:10:45;;;;;;;1.50;1.10;;;9.40;98.20;;;;;;5053759;28;20835;-78
2022/04/23 03:13:13;;;;;;;1.47;1.17;;;9.40;98.20;;;;;;5054233;28;20569;-78
2022/04/23 03:15:40;;;;;;;1.50;1.20;;;9.40;98.20;;;;;;5051468;28;20454;-77
2022/04/23 03:18:09;;;;;;;1.50;1.20;;;9.40;98.20;;;;;;5041947;28;20486;-77
2022/04/23 03:20:36;;;;;;;1.50;1.20;;;9.40;98.20;;;;;;5053148;28;20462;-78
2022/04/23 03:23:05;;;;;;;1.50;1.10;;;9.40;98.20;;;;;;5049565;28;20475;-76
2022/04/23 03:25:32;;;;;;;1.50;1.10;;;9.30;98.20;;;;;;5050887;28;20835;-76
2022/04/23 03:28:00;;;;;;;1.43;1.10;;;9.30;98.20;;;;;;5039178;28;20494;-76
2022/04/23 03:30:27;;;;;;;1.50;1.20;;;9.30;98.20;;;;;;5029594;28;20970;-77
2022/04/23 03:32:54;;;;;;;1.50;1.20;;;9.30;98.20;;;;;;5046196;28;20490;-76
2022/04/23 03:35:21;;;;;;;1.50;1.20;;;9.30;98.20;;;;;;5050949;28;20975;-76
2022/04/23 03:37:48;;;;;;;1.50;1.20;;;9.30;98.20;;;;;;5048677;28;20846;-76
2022/04/23 03:40:17;;;;;;;1.60;1.43;;;9.30;98.20;;;;;;5049568;28;20465;-77
2022/04/23 03:42:48;;;;;;;1.50;1.20;;;9.30;98.20;;;;;;5049716;28;20528;-77
2022/04/23 03:45:16;;;;;;;1.47;1.10;;;9.20;98.20;;;;;;5052503;28;20476;-79
2022/04/23 03:47:47;;;;;;;1.43;1.10;;;9.20;98.20;;;;;;5052669;28;20466;-78
2022/04/23 03:50:15;;;;;;;1.50;1.20;;;9.20;98.20;;;;;;5056235;28;20458;-78
2022/04/23 03:52:42;;;;;;;1.47;1.17;;;9.20;98.20;;;;;;5056537;28;20486;-79
2022/04/23 03:55:11;;;;;;;1.50;1.27;;;9.20;98.20;;;;;;5054953;28;20516;-77
2022/04/23 03:57:47;;;;;;;3.30;2.43;;;9.20;98.20;;;;;;5049585;28;20454;-79
2022/04/23 04:00:16;;;;;;;1.50;1.17;;;9.20;98.20;;;;;;5055144;28;20462;-79
2022/04/23 04:02:43;;;;;;;1.47;1.10;;;9.20;98.20;;;;;;5066633;22;20489;-76
2022/04/23 04:05:11;;;;;;;1.47;1.20;;;9.10;98.20;;;;;;5067105;28;20458;-76
2022/04/23 04:07:42;;;;;;;2.03;1.83;;;9.10;98.20;;;;;;5060948;28;20930;-76
2022/04/23 04:10:10;;;;;;;1.50;1.10;;;9.10;98.20;;;;;;5066437;28;20510;-76
2022/04/23 04:12:37;;;;;;;1.50;1.20;;;9.00;98.20;;;;;;5060940;28;20852;-75
2022/04/23 04:15:07;;;;;;;1.50;1.10;;;9.00;98.20;;;;;;5047490;28;20473;-77
2022/04/23 04:17:34;;;;;;;1.47;1.10;;;9.00;98.20;;;;;;5046296;28;21017;-77
2022/04/23 04:20:01;;;;;;;1.50;1.10;;;9.00;98.20;;;;;;5045393;28;20481;-76
2022/04/23 04:22:29;;;;;;;1.50;1.10;;;9.00;98.20;;;;;;5046081;28;20560;-76
2022/04/23 04:24:57;;;;;;;1.50;1.10;;;9.10;98.20;;;;;;5046691;28;20528;-76
2022/04/23 04:27:23;;;;;;;1.50;1.20;;;9.00;98.20;;;;;;5046305;28;20465;-76
2022/04/23 04:29:51;;;;;;;1.47;1.10;;;9.00;98.20;;;;;;5047102;28;20493;-76
2022/04/23 04:32:19;;;;;;;1.47;1.10;;;9.00;98.20;;;;;;5046146;28;20482;-79
2022/04/23 04:34:46;;;;;;;1.50;1.20;;;9.00;98.20;;;;;;5047613;28;20983;-77
2022/04/23 04:37:14;;;;;;;1.50;1.10;;;9.00;98.20;;;;;;5047485;28;20458;-78
2022/04/23 04:39:42;;;;;;;1.50;1.20;;;9.00;98.20;;;;;;5047140;28;20689;-77
2022/04/23 04:42:11;;;;;;;1.50;1.20;;;9.00;98.20;;;;;;5049049;28;20461;-78
2022/04/23 04:44:38;;;;;;;1.50;1.10;;;9.00;98.20;;;;;;5050850;28;20493;-78
2022/04/23 04:47:06;;;;;;;1.47;1.10;;;9.00;98.20;;;;;;5050913;28;20462;-77
2022/04/23 04:49:34;;;;;;;1.47;1.10;;;9.00;98.20;;;;;;5050454;28;20470;-78
2022/04/23 04:52:02;;;;;;;1.50;1.20;;;9.00;98.20;;;;;;5051122;28;20975;-78
2022/04/23 04:54:29;;;;;;;1.50;1.20;;;9.00;98.20;;;;;;5051206;28;20478;-78
2022/04/23 04:56:56;;;;;;;1.50;1.20;;;9.00;98.20;;;;;;5050745;28;20470;-78
2022/04/23 04:59:23;;;;;;;1.43;1.10;;;9.10;98.20;;;;;;5051604;28;20457;-78
2022/04/23 05:01:51;;;;;;;1.60;1.50;;;9.10;98.20;;;;;;5050437;28;20962;-78
2022/04/23 05:04:18;;;;;;;1.50;1.10;;;9.10;98.20;;;;;;5050964;28;21036;-78
2022/04/23 05:06:46;;;;;;;1.50;1.10;;;9.20;98.20;;;;;;5051767;28;20834;-78
2022/04/23 05:09:13;;;;;;;1.50;1.00;;;9.20;98.20;;;;;;5051904;28;20470;-79
2022/04/23 05:11:40;;;;;;;1.50;1.10;;;9.20;98.20;;;;;;5049677;28;20494;-77
2022/04/23 05:14:07;;;;;;;1.43;1.10;;;9.20;98.20;;;;;;5050588;28;20525;-78
2022/04/23 05:16:34;;;;;;;1.50;1.10;;;9.30;98.20;;;;;;5050626;28;20454;-78
2022/04/23 05:19:00;;;;;;;1.50;1.20;;;9.30;98.20;;;;;;5052041;28;20466;-76
2022/04/23 05:21:27;;;;;;;1.47;1.10;;;9.40;98.20;;;;;;5044638;28;20485;-78
2022/04/23 05:23:55;;;;;;;1.50;1.10;;;9.40;98.20;;;;;;5062902;28;20474;-78
2022/04/23 05:26:22;;;;;;;1.50;1.10;;;9.50;98.20;;;;;;5052259;28;20457;-78
2022/04/23 05:28:49;;;;;;;1.50;1.10;;;9.60;98.20;;;;;;5052737;28;20605;-78
2022/04/23 05:31:15;;;;;;;2.03;1.93;;;9.70;98.20;;;;;;5051104;28;20473;-78
2022/04/23 05:33:42;;;;;;;1.47;1.10;;;9.80;98.20;;;;;;5065561;28;20482;-79
2022/04/23 05:36:09;;;;;;;1.47;1.10;;;9.90;98.20;;;;;;5073901;28;20483;-78
2022/04/23 05:38:36;;;;;;;1.50;1.10;;;10.00;98.20;;;;;;5064005;28;20461;-78
2022/04/23 05:41:05;;;;;;;1.50;1.07;;;10.20;98.20;;;;;;5051617;28;20974;-77
2022/04/23 05:43:31;;;;;;;1.50;1.10;;;10.40;98.20;;;;;;5052602;28;20480;-77
2022/04/23 05:46:00;;;;;;;1.47;1.10;;;10.60;98.20;;;;;;5051273;28;20474;-78
2022/04/23 05:48:26;;;;;;;1.50;1.10;;;10.80;98.20;;;;;;5051235;28;20494;-78
2022/04/23 05:50:54;;;;;;;1.50;1.10;;;11.00;98.20;;;;;;5049173;28;21003;-78
2022/04/23 05:53:21;;;;;;;1.47;1.10;;;11.10;98.20;;;;;;5049968;28;20855;-78
2022/04/23 05:55:47;;;;;;;1.50;1.10;;;11.30;98.20;;;;;;5050653;28;20466;-78
2022/04/23 05:58:15;;;;;;;1.50;1.10;;;11.40;98.20;;;;;;5051211;28;20486;-78
2022/04/23 06:00:42;;;;;;;1.50;1.10;;;11.60;98.20;;;;;;5049446;28;20462;-77
2022/04/23 06:03:09;;;;;;;1.50;1.00;;;11.80;98.20;;;;;;5058229;28;20490;-78
2022/04/23 06:05:36;;;;;;;1.60;1.23;;;12.00;97.80;;;;;;5050280;28;21077;-78
2022/04/23 06:08:02;;;;;;;1.47;1.00;;;12.20;97.60;;;;;;5048966;28;20466;-78
2022/04/23 06:10:29;;;;;;;1.50;1.07;;;12.30;97.90;;;;;;5048970;28;20469;-77
2022/04/23 06:12:56;;;;;;;1.50;1.00;;;12.60;97.20;;;;;;5048166;28;20486;-78
2022/04/23 06:15:24;;;;;;;1.50;1.00;;;12.70;95.50;;;;;;5050232;28;20466;-78
2022/04/23 06:17:51;;;;;;;1.50;1.00;;;12.90;95.80;;;;;;5050045;28;20459;-78
2022/04/23 06:20:17;;;;;;;1.60;1.30;;;13.00;95.20;;;;;;5049873;28;20831;-78
2022/04/23 06:22:44;;;;;;;1.50;1.10;;;13.30;94.70;;;;;;5048989;28;20482;-78
2022/04/23 06:25:11;;;;;;;1.47;0.90;;;13.50;94.00;;;;;;5049899;28;20873;-77
2022/04/23 06:27:38;;;;;;;1.47;1.00;;;13.70;93.70;;;;;;5048179;28;20455;-77
2022/04/23 06:30:08;;;;;;;1.50;1.10;;;13.80;92.30;;;;;;5048310;28;20989;-76
2022/04/23 06:32:37;;;;;;;1.50;1.00;;;13.90;93.00;;;;;;5047086;28;20474;-77
2022/04/23 06:35:04;;;;;;;1.50;1.00;;;13.90;92.10;;;;;;5048255;28;20465;-76
2022/04/23 06:37:32;;;;;;;1.50;1.00;;;14.00;92.00;;;;;;5048757;28;20469;-78
2022/04/23 06:39:58;;;;;;;1.47;0.90;;;14.10;91.80;;;;;;5048025;28;20577;-78
2022/04/23 06:42:25;;;;;;;1.50;1.00;;;14.30;92.00;;;;;;5046463;28;20467;-76
2022/04/23 06:44:52;;;;;;;1.50;1.00;;;14.50;91.10;;;;;;5048677;28;20454;-78
2022/04/23 06:47:19;;;;;;;1.47;1.00;;;14.80;91.00;;;;;;5047667;28;20496;-75
2022/04/23 06:49:47;;;;;;;1.50;1.00;;;15.00;89.80;;;;;;5047119;28;20469;-76
2022/04/23 06:52:14;;;;;;;1.97;1.77;;;15.00;89.10;;;;;;5045834;28;20524;-76
2022/04/23 06:54:40;;;;;;;1.50;1.00;;;15.10;88.60;;;;;;5041645;28;20493;-76
2022/04/23 06:57:07;;;;;;;1.50;1.10;;;15.30;88.50;;;;;;5042105;28;20973;-77
2022/04/23 06:59:34;;;;;;;1.50;1.00;;;15.40;87.70;;;;;;5046561;28;20841;-77
2022/04/23 07:02:02;;;;;;;1.47;0.90;;;15.40;87.50;;;;;;5046542;28;20462;-77
2022/04/23 07:04:29;;;;;;;1.43;1.00;;;15.40;88.20;;;;;;5046310;28;20486;-78
2022/04/23 07:06:57;;;;;;;1.50;0.90;;;15.40;87.10;;;;;;5047466;28;20537;-77
2022/04/23 07:09:24;;;;;;;1.50;1.00;;;15.40;87.50;;;;;;5040210;28;20463;-77
2022/04/23 07:11:51;;;;;;;1.50;1.10;;;15.50;87.30;;;;;;5046200;28;20493;-77
2022/04/23 07:14:18;;;;;;;1.47;0.90;;;15.50;86.70;;;;;;5048960;28;20570;-77
2022/04/23 07:16:46;;;;;;;1.50;0.90;;;15.50;86.70;;;;;;5047130;28;20469;-77
2022/04/23 07:19:13;;;;;;;1.40;0.90;;;15.60;86.60;;;;;;5047264;28;20463;-77
2022/04/23 07:21:40;;;;;;;2.50;2.30;;;15.60;86.90;;;;;;5047015;28;20462;-78
2022/04/23 07:24:10;;;;;;;1.43;0.90;;;15.70;86.70;;;;;;5049724;28;20913;-77
2022/04/23 07:26:38;;;;;;;1.43;1.00;;;15.90;85.70;;;;;;5046631;28;20474;-76
2022/04/23 07:29:07;;;;;;;2.13;1.93;;;16.00;84.80;;;;;;5047671;28;20985;-77
2022/04/23 07:31:34;;;;;;;1.50;1.00;;;16.10;84.90;;;;;;5045628;28;20684;-77
2022/04/23 07:39:31;;;;;;;1.60;1.20;;;16.40;83.70;;;;;;5048323;28;20503;-77
2022/04/23 07:41:58;;;;;;;1.43;0.90;;;16.30;83.20;;;;;;5046219;28;20462;-77
2022/04/23 07:44:25;;;;;;;1.47;1.00;;;16.20;83.50;;;;;;5047997;28;20569;-78
2022/04/23 07:46:52;;;;;;;1.60;1.20;;;16.20;83.20;;;;;;5036789;28;20472;-78
2022/04/23 07:49:20;;;;;;;1.47;1.00;;;16.30;83.40;;;;;;5042956;28;20466;-77
2022/04/23 07:51:47;;;;;;;1.47;1.00;;;16.50;83.60;;;;;;5044356;28;20560;-77
2022/04/23 07:54:15;;;;;;;2.30;2.10;;;16.60;82.60;;;;;;5044899;28;20917;-77
2022/04/23 07:56:44;;;;;;;1.47;0.90;;;16.70;82.20;;;;;;5048616;28;21001;-77
2022/04/23 07:59:11;;;;;;;1.47;1.00;;;16.70;82.40;;;;;;5050986;28;20568;-78
2022/04/23 08:01:38;;;;;;;1.43;0.90;;;16.80;82.20;;;;;;5048679;28;20546;-77
2022/04/23 08:04:06;;;;;;;1.50;1.10;;;16.90;82.00;;;;;;5046120;28;20848;-78
2022/04/23 08:06:34;;;;;;;1.80;1.30;;;17.00;81.10;;;;;;5044386;28;20514;-78
2022/04/23 08:09:01;;;;;;;1.50;0.90;;;17.00;81.20;;;;;;5046978;28;20458;-77
2022/04/23 08:11:28;;;;;;;1.47;0.90;;;17.10;81.20;;;;;;5046541;28;20462;-78
2022/04/23 08:13:56;;;;;;;1.47;1.00;;;17.30;80.40;;;;;;5048296;28;20945;-78
2022/04/23 08:16:26;;;;;;;1.50;0.90;;;17.20;80.70;;;;;;5051255;28;20471;-78
2022/04/23 08:18:54;;;;;;;1.50;1.00;;;17.30;80.70;;;;;;5053751;28;20469;-78
2022/04/23 08:21:21;;;;;;;2.43;2.23;;;17.30;80.40;;;;;;5046005;28;20470;-77
2022/04/23 08:23:48;;;;;;;1.50;0.90;;;17.40;80.00;;;;;;5049505;28;20481;-77
2022/04/23 08:26:15;;;;;;;1.50;0.90;;;17.50;80.10;;;;;;5050007;28;20466;-77
2022/04/23 08:31:27;;;;;;;1.80;1.50;;;17.70;79.60;;;;;;5045789;28;20667;-77
2022/04/23 08:34:00;;;;;;;1.60;1.50;;;17.60;79.30;;;;;;5045707;28;20486;-77
2022/04/23 08:36:29;;;;;;;1.50;0.93;;;17.70;79.10;;;;;;5048019;28;20533;-79
2022/04/23 08:38:57;;;;;;;1.50;1.10;;;17.80;79.30;;;;;;5050010;28;20512;-76
2022/04/23 08:41:28;;;;;;;4.43;2.50;;;18.00;78.50;;;;;;5047224;28;20531;-77
2022/04/23 08:43:56;;;;;;;1.50;0.90;;;18.10;78.20;;;;;;5046608;28;20486;-76
2022/04/23 08:46:25;;;;;;;1.50;0.90;;;18.30;78.20;;;;;;5051709;28;20967;-76
2022/04/23 08:49:02;;;;;;;1.50;1.00;;;18.30;77.50;;;;;;5049680;28;20510;-76
2022/04/23 08:51:34;;;;;;;1.43;0.90;;;18.40;77.70;;;;;;5049880;28;20556;-75
2022/04/23 08:54:08;;;;;;;1.47;0.90;;;18.50;77.30;;;;;;5052393;28;20486;-76
2022/04/23 08:56:39;;;;;;;1.50;0.90;;;18.60;77.60;;;;;;5048724;28;20508;-78
2022/04/23 08:59:07;;;;;;;1.50;1.10;;;18.70;77.50;;;;;;5051044;28;20532;-76
2022/04/23 09:01:35;;;;;;;1.60;1.40;;;18.90;76.90;;;;;;5053678;28;20516;-77
2022/04/23 09:04:04;;;;;;;1.60;1.17;;;19.00;76.10;;;;;;5044962;28;20508;-76
2022/04/23 09:06:35;;;;;;;1.50;0.90;;;19.10;75.20;;;;;;5052088;28;20466;-77
2022/04/23 09:09:07;;;;;;;2.00;1.30;;;19.20;75.40;;;;;;5053136;28;20466;-77
2022/04/23 09:11:36;;;;;;;1.60;1.40;;;19.50;75.40;;;;;;5051568;28;20462;-77
2022/04/23 09:14:03;;;;;;;1.47;0.90;;;19.80;74.90;;;;;;5053189;28;20526;-77
2022/04/23 09:24:46;;;;;;;1.50;0.90;;;20.00;73.70;;;;;;5049881;28;20441;-77
2022/04/23 09:27:13;;;;;;;2.87;2.60;;;20.10;72.80;;;;;;5045240;28;20473;-77
2022/04/23 09:29:42;;;;;;;2.10;1.63;;;20.10;73.20;;;;;;5049431;28;20473;-77
2022/04/23 09:32:10;;;;;;;1.47;0.90;;;20.30;73.20;;;;;;5045756;28;20470;-78
2022/04/23 09:34:38;;;;;;;1.47;0.90;;;20.50;72.60;;;;;;5046564;28;21335;-78
2022/04/23 09:37:05;;;;;;;1.50;0.90;;;20.60;71.70;;;;;;5055329;28;20463;-78
2022/04/23 09:39:35;;;;;;;1.47;0.90;;;20.70;71.30;;;;;;5048560;28;20578;-76
2022/04/23 09:42:18;;;;;;;1.43;0.87;;;20.60;71.80;;;;;;5047409;28;20458;-78
2022/04/23 09:44:46;;;;;;;1.43;0.90;;;20.50;71.30;;;;;;5048768;28;20489;-77
2022/04/23 09:47:29;;;;;;;1.50;1.00;;;20.40;72.30;;;;;;5048495;28;20473;-77
2022/04/23 09:49:58;;;;;;;1.47;0.90;;;20.40;71.50;;;;;;5049328;28;20846;-78
2022/04/23 09:52:29;;;;;;;1.50;0.90;;;20.20;71.60;;;;;;5048258;28;20462;-78
2022/04/23 09:54:58;;;;;;;1.47;0.90;;;20.30;71.70;;;;;;5046786;28;20920;-78
2022/04/23 09:57:25;;;;;;;1.70;1.20;;;20.40;71.40;;;;;;5046132;28;20547;-78
2022/04/23 09:59:52;;;;;;;1.47;0.90;;;20.40;70.80;;;;;;5046544;28;20585;-77
2022/04/23 10:02:20;;;;;;;1.47;0.90;;;20.40;70.80;;;;;;5044913;28;20492;-77
2022/04/23 10:04:47;;;;;;;1.43;0.90;;;20.50;71.10;;;;;;5047885;28;20490;-78
2022/04/23 10:07:18;;;;;;;1.50;1.00;;;20.60;70.60;;;;;;5044119;28;20859;-77
2022/04/23 10:09:49;;;;;;;1.50;1.00;;;20.50;70.20;;;;;;5048370;28;20952;-78
2022/04/23 10:12:19;;;;;;;1.43;0.90;;;20.20;70.60;;;;;;5046826;28;20473;-77
2022/04/23 10:14:51;;;;;;;1.50;1.00;;;20.30;71.00;;;;;;5046541;28;20915;-77
2022/04/23 10:17:20;;;;;;;1.47;0.90;;;20.40;70.40;;;;;;5042086;28;20508;-77
2022/04/23 10:19:48;;;;;;;1.47;0.90;;;20.50;70.50;;;;;;5046682;28;20548;-77
2022/04/23 10:22:21;;;;;;;1.47;0.90;;;20.40;69.50;;;;;;5047993;28;20498;-76
2022/04/23 10:24:56;;;;;;;1.47;0.90;;;20.20;70.10;;;;;;5044495;28;20490;-78
2022/04/23 10:27:25;;;;;;;1.40;0.90;;;20.20;70.60;;;;;;5047079;28;20466;-78
2022/04/23 10:29:55;;;;;;;1.50;0.90;;;20.20;70.90;;;;;;5047582;28;20520;-78
2022/04/23 10:32:24;;;;;;;1.60;1.13;;;20.40;70.80;;;;;;5045140;28;21191;-76
2022/04/23 10:34:51;;;;;;;1.60;1.20;;;20.60;70.10;;;;;;5047754;28;20486;-78
2022/04/23 10:37:22;;;;;;;1.50;0.90;;;20.60;70.70;;;;;;5051985;28;20917;-77
2022/04/23 10:40:13;;;;;;;1.50;0.80;;;20.60;70.40;;;;;;5046938;28;20554;-78
2022/04/23 10:43:02;;;;;;;1.47;0.90;;;20.70;70.70;;;;;;5049771;28;20482;-77
2022/04/23 10:45:33;;;;;;;1.43;0.90;;;20.60;70.20;;;;;;5049879;28;20458;-77
2022/04/23 10:48:38;;;;;;;2.20;2.00;;;20.70;69.70;;;;;;5049870;28;20466;-77
2022/04/23 10:51:10;;;;;;;1.43;0.90;;;20.90;70.40;;;;;;5039437;28;21037;-75
2022/04/23 10:53:57;;;;;;;1.60;1.30;;;20.90;69.10;;;;;;5048201;28;20482;-76
2022/04/23 10:56:26;;;;;;;1.47;0.90;;;21.00;69.20;;;;;;5048756;28;20462;-77
2022/04/23 10:58:53;;;;;;;1.47;0.90;;;21.00;69.10;;;;;;5053069;28;20462;-78
2022/04/23 11:01:29;;;;;;;1.47;0.90;;;21.10;69.00;;;;;;5042964;28;20477;-77
2022/04/23 11:04:20;;;;;;;3.73;2.07;;;21.20;68.60;;;;;;5046219;28;21005;-77
2022/04/23 11:13:26;;;;;;;1.40;0.90;;;21.50;67.60;;;;;;5048967;28;20486;-76
2022/04/23 11:16:14;;;;;;;1.50;1.00;;;21.50;67.30;;;;;;5047514;28;20580;-77
2022/04/23 11:18:42;;;;;;;1.40;0.83;;;21.40;67.70;;;;;;5047836;28;20471;-78
2022/04/23 11:21:18;;;;;;;2.87;1.73;;;21.70;68.10;;;;;;5045867;28;20942;-76
2022/04/23 11:23:47;;;;;;;1.50;0.90;;;21.60;67.20;;;;;;5046189;28;20485;-76
2022/04/23 11:26:17;;;;;;;2.90;2.20;;;21.60;67.40;;;;;;5043277;28;20454;-77
2022/04/23 11:28:44;;;;;;;1.50;1.10;;;21.60;67.70;;;;;;5043237;28;20462;-77
2022/04/23 11:31:12;;;;;;;1.50;1.00;;;21.50;67.50;;;;;;5041765;28;20458;-76
2022/04/23 11:33:50;;;;;;;1.50;1.10;;;21.40;67.60;;;;;;5048003;28;20735;-77
2022/04/23 11:36:17;;;;;;;1.50;1.00;;;21.30;68.30;;;;;;5045648;28;20543;-77
2022/04/23 11:38:44;;;;;;;1.47;0.80;;;21.40;68.20;;;;;;5044281;28;20473;-78
2022/04/23 11:41:11;;;;;;;1.50;0.90;;;21.50;68.00;;;;;;5040281;28;20807;-77
2022/04/23 11:43:39;;;;;;;1.40;0.90;;;21.50;67.60;;;;;;5045649;28;20489;-77
2022/04/23 11:46:08;;;;;;;3.13;2.93;;;21.50;67.70;;;;;;5043893;28;20880;-78
2022/04/23 11:48:46;;;;;;;1.50;0.90;;;21.40;68.40;;;;;;5044261;28;20458;-76
2022/04/23 11:51:13;;;;;;;1.40;0.90;;;21.60;67.70;;;;;;5043965;28;20480;-77
2022/04/23 11:53:58;;;;;;;1.50;1.00;;;22.00;67.60;;;;;;5050466;28;20478;-77
2022/04/23 11:56:33;;;;;;;1.47;0.90;;;21.90;66.50;;;;;;5047089;28;20496;-77
2022/04/23 11:59:04;;;;;;;1.50;1.00;;;21.50;66.70;;;;;;5047598;28;20491;-77
2022/04/23 12:01:32;;;;;;;1.40;0.90;;;21.20;67.00;;;;;;5045625;28;20466;-78
2022/04/23 12:04:00;;;;;;;1.60;1.37;;;21.00;67.50;;;;;;5047865;28;20992;-77
2022/04/23 12:08:52;;;;;;;4.13;2.00;;;21.30;68.00;;;;;;5062489;22;20498;-81
2022/04/23 12:11:21;;;;;;;1.43;0.80;;;21.40;67.70;;;;;;5035474;28;20272;-80
2022/04/23 12:13:48;;;;;;;1.40;0.87;;;21.30;66.90;;;;;;5015570;28;20459;-78
2022/04/23 12:16:34;;;;;;;1.47;0.90;;;21.30;67.60;;;;;;5029381;28;20559;-81
2022/04/23 12:19:02;;;;;;;1.43;0.90;;;21.50;67.00;;;;;;5021007;28;20466;-82
2022/04/23 12:21:30;;;;;;;3.00;2.70;;;21.60;66.60;;;;;;5006144;28;20541;-84
2022/04/23 12:23:57;;;;;;;1.47;0.90;;;21.70;66.60;;;;;;5001276;28;20865;-81
2022/04/23 12:26:25;;;;;;;1.43;0.90;;;21.90;66.10;;;;;;5014750;28;20483;-81
2022/04/23 12:43:28;;;;;;;1.80;1.33;;;20.80;67.50;;;;;;4993726;28;20544;-79
2022/04/23 12:46:06;;;;;;;1.43;0.90;;;20.40;68.30;;;;;;5018422;28;20630;-80
2022/04/23 12:48:53;;;;;;;1.43;0.90;;;20.20;68.90;;;;;;5016710;28;20483;-78
2022/04/23 12:51:19;;;;;;;1.43;0.90;;;20.20;69.00;;;;;;5001850;28;20480;-78
2022/04/23 12:53:46;;;;;;;2.23;2.03;;;20.50;68.40;;;;;;5013243;28;20479;-81
2022/04/23 12:56:16;;;;;;;1.47;0.90;;;20.90;68.80;;;;;;5014646;28;20886;-81
2022/04/23 12:58:42;;;;;;;1.43;0.90;;;21.20;68.20;;;;;;5015556;28;20479;-80
2022/04/23 13:01:09;;;;;;;2.23;2.03;;;21.10;66.60;;;;;;5015733;28;20480;-82
2022/04/23 13:03:44;;;;;;;1.47;0.90;;;20.90;67.20;;;;;;5019883;28;20479;-86
2022/04/23 13:08:55;;;;;;;1.50;1.07;;;21.10;66.50;;;;;;5037131;28;20563;-84
2022/04/23 13:11:26;;;;;;;1.43;0.90;;;21.20;66.70;;;;;;5032806;28;20540;-81
2022/04/23 13:13:54;;;;;;;1.47;0.90;;;20.90;66.30;;;;;;5020158;28;20452;-80
2022/04/23 13:16:22;;;;;;;1.43;0.90;;;20.80;67.40;;;;;;5020593;28;20463;-82
2022/04/23 13:18:51;;;;;;;1.97;1.53;;;20.90;67.60;;;;;;5039629;28;20642;-82
2022/04/23 13:21:17;;;;;;;1.50;1.30;;;20.80;68.00;;;;;;5038146;28;20498;-80
2022/04/23 13:23:45;;;;;;;1.40;0.90;;;20.40;68.40;;;;;;5037281;28;20448;-84
2022/04/23 13:26:15;;;;;;;1.47;0.90;;;20.40;69.20;;;;;;5019231;28;20512;-80
2022/04/23 13:28:41;;;;;;;1.87;1.67;;;20.50;68.90;;;;;;5036222;28;20491;-82
2022/04/23 13:31:09;;;;;;;1.43;0.90;;;20.60;68.10;;;;;;5033498;28;20579;-81
2022/04/23 13:33:36;;;;;;;1.90;1.70;;;20.50;68.40;;;;;;5015499;28;20460;-80
2022/04/23 13:36:06;;;;;;;1.47;0.90;;;20.60;68.40;;;;;;5016846;28;20502;-81
2022/04/23 13:38:36;;;;;;;1.40;0.90;;;20.80;68.40;;;;;;5005459;28;20552;-80
2022/04/23 13:41:04;;;;;;;1.47;0.90;;;20.90;68.00;;;;;;4998219;28;20461;-82